sensor_id;sensor_type;location;lat;lon;timestamp;P1;durP1;ratioP1;P2;durP2;ratioP2
21611;SDS011;47005;52.292;13.452;2023-06-22T00:00:51;16.73;;;14.45;;
21611;SDS011;47005;52.292;13.452;2023-06-22T00:03:18;17.17;;;13.82;;
21611;SDS011;47005;52.292;13.452;2023-06-22T00:05:45;16.33;;;13.35;;
21611;SDS011;47005;52.292;13.452;2023-06-22T00:08:11;16.95;;;13.50;;
21611;SDS011;47005;52.292;13.452;2023-06-22T00:10:37;17.00;;;12.93;;
21611;SDS011;47005;52.292;13.452;2023-06-22T00:13:02;21.02;;;13.43;;
21611;SDS011;47005;52.292;13.452;2023-06-22T00:15:29;15.88;;;13.15;;
21611;SDS011;47005;52.292;13.452;2023-06-22T00:17:54;15.98;;;12.80;;
21611;SDS011;47005;52.292;13.452;2023-06-22T00:20:22;14.65;;;13.05;;
21611;SDS011;47005;52.292;13.452;2023-06-22T00:22:52;17.50;;;12.95;;
21611;SDS011;47005;52.292;13.452;2023-06-22T00:25:21;17.02;;;12.77;;
21611;SDS011;47005;52.292;13.452;2023-06-22T00:27:47;15.38;;;13.07;;
21611;SDS011;47005;52.292;13.452;2023-06-22T00:30:13;15.60;;;13.10;;
21611;SDS011;47005;52.292;13.452;2023-06-22T00:32:43;14.90;;;12.57;;
21611;SDS011;47005;52.292;13.452;2023-06-22T00:35:09;14.02;;;11.13;;
21611;SDS011;47005;52.292;13.452;2023-06-22T00:37:35;15.82;;;13.23;;
21611;SDS011;47005;52.292;13.452;2023-06-22T00:40:04;15.07;;;13.02;;
21611;SDS011;47005;52.292;13.452;2023-06-22T00:42:32;15.63;;;12.40;;
21611;SDS011;47005;52.292;13.452;2023-06-22T00:44:58;15.23;;;12.93;;
21611;SDS011;47005;52.292;13.452;2023-06-22T00:47:23;14.70;;;12.57;;
21611;SDS011;47005;52.292;13.452;2023-06-22T00:49:49;16.73;;;13.13;;
21611;SDS011;47005;52.292;13.452;2023-06-22T00:52:21;15.57;;;12.82;;
21611;SDS011;47005;52.292;13.452;2023-06-22T00:54:52;14.50;;;12.32;;
21611;SDS011;47005;52.292;13.452;2023-06-22T00:57:18;15.05;;;12.95;;
21611;SDS011;47005;52.292;13.452;2023-06-22T00:59:45;14.40;;;12.50;;
21611;SDS011;47005;52.292;13.452;2023-06-22T01:02:12;16.10;;;12.05;;
21611;SDS011;47005;52.292;13.452;2023-06-22T01:04:38;13.43;;;11.77;;
21611;SDS011;47005;52.292;13.452;2023-06-22T01:07:21;13.35;;;11.23;;
21611;SDS011;47005;52.292;13.452;2023-06-22T01:12:54;15.20;;;12.68;;
21611;SDS011;47005;52.292;13.452;2023-06-22T01:15:34;15.88;;;12.18;;
21611;SDS011;47005;52.292;13.452;2023-06-22T01:18:07;15.50;;;12.45;;
21611;SDS011;47005;52.292;13.452;2023-06-22T01:20:36;14.68;;;13.13;;
21611;SDS011;47005;52.292;13.452;2023-06-22T01:23:07;17.45;;;12.70;;
21611;SDS011;47005;52.292;13.452;2023-06-22T01:25:43;15.88;;;12.82;;
21611;SDS011;47005;52.292;13.452;2023-06-22T01:28:22;12.07;;;10.75;;
21611;SDS011;47005;52.292;13.452;2023-06-22T01:31:08;14.07;;;12.57;;
21611;SDS011;47005;52.292;13.452;2023-06-22T01:33:37;14.80;;;12.82;;
21611;SDS011;47005;52.292;13.452;2023-06-22T01:36:05;14.55;;;12.18;;
21611;SDS011;47005;52.292;13.452;2023-06-22T01:38:32;14.13;;;12.52;;
21611;SDS011;47005;52.292;13.452;2023-06-22T01:40:59;17.45;;;12.63;;
21611;SDS011;47005;52.292;13.452;2023-06-22T01:43:26;15.32;;;11.93;;
21611;SDS011;47005;52.292;13.452;2023-06-22T01:45:53;16.33;;;12.02;;
21611;SDS011;47005;52.292;13.452;2023-06-22T01:48:20;15.10;;;11.93;;
21611;SDS011;47005;52.292;13.452;2023-06-22T01:50:47;15.98;;;12.18;;
21611;SDS011;47005;52.292;13.452;2023-06-22T01:53:13;14.75;;;12.10;;
21611;SDS011;47005;52.292;13.452;2023-06-22T01:55:38;14.75;;;12.60;;
21611;SDS011;47005;52.292;13.452;2023-06-22T01:58:04;16.50;;;12.27;;
21611;SDS011;47005;52.292;13.452;2023-06-22T02:00:31;14.82;;;12.55;;
21611;SDS011;47005;52.292;13.452;2023-06-22T02:05:51;15.57;;;11.93;;
21611;SDS011;47005;52.292;13.452;2023-06-22T02:08:23;14.65;;;12.18;;
21611;SDS011;47005;52.292;13.452;2023-06-22T02:11:02;14.85;;;12.00;;
21611;SDS011;47005;52.292;13.452;2023-06-22T02:13:30;13.30;;;11.90;;
21611;SDS011;47005;52.292;13.452;2023-06-22T02:15:57;15.18;;;11.65;;
21611;SDS011;47005;52.292;13.452;2023-06-22T02:18:23;15.00;;;12.43;;
21611;SDS011;47005;52.292;13.452;2023-06-22T02:20:48;16.00;;;11.40;;
21611;SDS011;47005;52.292;13.452;2023-06-22T02:23:14;13.77;;;12.02;;
21611;SDS011;47005;52.292;13.452;2023-06-22T02:25:39;17.55;;;13.13;;
21611;SDS011;47005;52.292;13.452;2023-06-22T02:28:09;12.82;;;10.98;;
21611;SDS011;47005;52.292;13.452;2023-06-22T02:30:34;13.40;;;12.05;;
21611;SDS011;47005;52.292;13.452;2023-06-22T02:33:00;13.90;;;11.68;;
21611;SDS011;47005;52.292;13.452;2023-06-22T02:35:26;15.68;;;14.00;;
21611;SDS011;47005;52.292;13.452;2023-06-22T02:37:57;15.52;;;12.15;;
21611;SDS011;47005;52.292;13.452;2023-06-22T02:40:24;13.00;;;10.95;;
21611;SDS011;47005;52.292;13.452;2023-06-22T02:42:50;14.43;;;11.70;;
21611;SDS011;47005;52.292;13.452;2023-06-22T02:45:16;14.60;;;12.20;;
21611;SDS011;47005;52.292;13.452;2023-06-22T02:47:41;13.43;;;11.98;;
21611;SDS011;47005;52.292;13.452;2023-06-22T02:50:07;14.80;;;13.13;;
21611;SDS011;47005;52.292;13.452;2023-06-22T02:52:33;16.85;;;12.40;;
21611;SDS011;47005;52.292;13.452;2023-06-22T02:54:59;15.80;;;13.05;;
21611;SDS011;47005;52.292;13.452;2023-06-22T02:57:25;16.17;;;12.68;;
21611;SDS011;47005;52.292;13.452;2023-06-22T02:59:50;14.13;;;12.00;;
21611;SDS011;47005;52.292;13.452;2023-06-22T03:02:16;13.15;;;11.65;;
21611;SDS011;47005;52.292;13.452;2023-06-22T03:04:42;14.35;;;12.38;;
21611;SDS011;47005;52.292;13.452;2023-06-22T03:07:08;15.07;;;12.25;;
21611;SDS011;47005;52.292;13.452;2023-06-22T03:09:34;13.10;;;11.45;;
21611;SDS011;47005;52.292;13.452;2023-06-22T03:12:00;14.77;;;11.48;;
21611;SDS011;47005;52.292;13.452;2023-06-22T03:14:27;17.90;;;13.15;;
21611;SDS011;47005;52.292;13.452;2023-06-22T03:16:52;16.55;;;11.85;;
21611;SDS011;47005;52.292;13.452;2023-06-22T03:19:18;14.65;;;12.00;;
21611;SDS011;47005;52.292;13.452;2023-06-22T03:21:45;17.35;;;12.38;;
21611;SDS011;47005;52.292;13.452;2023-06-22T03:24:10;14.27;;;12.80;;
21611;SDS011;47005;52.292;13.452;2023-06-22T03:26:36;14.60;;;13.05;;
21611;SDS011;47005;52.292;13.452;2023-06-22T03:29:01;15.02;;;12.15;;
21611;SDS011;47005;52.292;13.452;2023-06-22T03:31:28;23.02;;;13.10;;
21611;SDS011;47005;52.292;13.452;2023-06-22T03:33:54;14.10;;;12.23;;
21611;SDS011;47005;52.292;13.452;2023-06-22T03:36:19;15.55;;;11.70;;
21611;SDS011;47005;52.292;13.452;2023-06-22T03:38:45;14.18;;;12.73;;
21611;SDS011;47005;52.292;13.452;2023-06-22T03:41:12;18.17;;;12.05;;
21611;SDS011;47005;52.292;13.452;2023-06-22T03:43:38;14.60;;;12.65;;
21611;SDS011;47005;52.292;13.452;2023-06-22T03:46:04;15.40;;;12.07;;
21611;SDS011;47005;52.292;13.452;2023-06-22T03:48:30;13.25;;;11.48;;
21611;SDS011;47005;52.292;13.452;2023-06-22T03:50:56;16.08;;;12.32;;
21611;SDS011;47005;52.292;13.452;2023-06-22T03:53:21;14.32;;;12.07;;
21611;SDS011;47005;52.292;13.452;2023-06-22T03:55:50;13.27;;;11.80;;
21611;SDS011;47005;52.292;13.452;2023-06-22T03:58:17;15.18;;;11.82;;
21611;SDS011;47005;52.292;13.452;2023-06-22T04:00:49;15.05;;;12.10;;
21611;SDS011;47005;52.292;13.452;2023-06-22T04:03:16;16.58;;;11.85;;
21611;SDS011;47005;52.292;13.452;2023-06-22T04:05:43;14.75;;;12.82;;
21611;SDS011;47005;52.292;13.452;2023-06-22T04:08:10;13.75;;;11.55;;
21611;SDS011;47005;52.292;13.452;2023-06-22T04:10:38;17.23;;;12.35;;
21611;SDS011;47005;52.292;13.452;2023-06-22T04:13:03;15.70;;;12.40;;
21611;SDS011;47005;52.292;13.452;2023-06-22T04:15:29;12.05;;;10.68;;
21611;SDS011;47005;52.292;13.452;2023-06-22T04:17:55;12.10;;;10.70;;
21611;SDS011;47005;52.292;13.452;2023-06-22T04:20:22;12.10;;;10.82;;
21611;SDS011;47005;52.292;13.452;2023-06-22T04:22:47;13.82;;;12.05;;
21611;SDS011;47005;52.292;13.452;2023-06-22T04:25:13;12.75;;;11.18;;
21611;SDS011;47005;52.292;13.452;2023-06-22T04:27:39;15.02;;;11.05;;
21611;SDS011;47005;52.292;13.452;2023-06-22T04:30:06;13.63;;;11.35;;
21611;SDS011;47005;52.292;13.452;2023-06-22T04:32:35;14.05;;;11.70;;
21611;SDS011;47005;52.292;13.452;2023-06-22T04:35:01;14.20;;;11.68;;
21611;SDS011;47005;52.292;13.452;2023-06-22T04:37:29;13.32;;;11.32;;
21611;SDS011;47005;52.292;13.452;2023-06-22T04:39:56;12.52;;;11.23;;
21611;SDS011;47005;52.292;13.452;2023-06-22T04:42:21;14.15;;;12.07;;
21611;SDS011;47005;52.292;13.452;2023-06-22T04:44:47;14.60;;;11.30;;
21611;SDS011;47005;52.292;13.452;2023-06-22T04:47:13;12.90;;;11.07;;
21611;SDS011;47005;52.292;13.452;2023-06-22T04:49:38;12.73;;;10.82;;
21611;SDS011;47005;52.292;13.452;2023-06-22T04:52:06;11.43;;;10.23;;
21611;SDS011;47005;52.292;13.452;2023-06-22T04:54:33;14.93;;;10.90;;
21611;SDS011;47005;52.292;13.452;2023-06-22T04:57:04;11.55;;;9.82;;
21611;SDS011;47005;52.292;13.452;2023-06-22T04:59:36;15.32;;;10.50;;
21611;SDS011;47005;52.292;13.452;2023-06-22T05:02:04;12.02;;;10.60;;
21611;SDS011;47005;52.292;13.452;2023-06-22T05:04:30;12.82;;;10.35;;
21611;SDS011;47005;52.292;13.452;2023-06-22T05:06:57;13.23;;;9.93;;
21611;SDS011;47005;52.292;13.452;2023-06-22T05:09:23;16.60;;;10.60;;
21611;SDS011;47005;52.292;13.452;2023-06-22T05:11:50;11.15;;;9.57;;
21611;SDS011;47005;52.292;13.452;2023-06-22T05:14:16;14.93;;;9.70;;
21611;SDS011;47005;52.292;13.452;2023-06-22T05:16:42;10.40;;;8.85;;
21611;SDS011;47005;52.292;13.452;2023-06-22T05:19:08;12.82;;;9.40;;
21611;SDS011;47005;52.292;13.452;2023-06-22T05:21:34;11.45;;;8.25;;
21611;SDS011;47005;52.292;13.452;2023-06-22T05:24:00;10.45;;;8.27;;
21611;SDS011;47005;52.292;13.452;2023-06-22T05:26:27;10.45;;;7.82;;
21611;SDS011;47005;52.292;13.452;2023-06-22T05:28:57;10.10;;;8.13;;
21611;SDS011;47005;52.292;13.452;2023-06-22T05:31:24;10.82;;;8.57;;
21611;SDS011;47005;52.292;13.452;2023-06-22T05:33:51;10.27;;;8.68;;
21611;SDS011;47005;52.292;13.452;2023-06-22T05:36:17;9.45;;;8.45;;
21611;SDS011;47005;52.292;13.452;2023-06-22T05:38:45;9.65;;;7.95;;
21611;SDS011;47005;52.292;13.452;2023-06-22T05:41:11;12.00;;;8.02;;
21611;SDS011;47005;52.292;13.452;2023-06-22T05:43:37;10.52;;;7.15;;
21611;SDS011;47005;52.292;13.452;2023-06-22T05:46:03;12.80;;;7.50;;
21611;SDS011;47005;52.292;13.452;2023-06-22T05:48:29;10.23;;;7.43;;
21611;SDS011;47005;52.292;13.452;2023-06-22T05:50:55;9.50;;;6.70;;
21611;SDS011;47005;52.292;13.452;2023-06-22T05:53:21;11.18;;;6.22;;
21611;SDS011;47005;52.292;13.452;2023-06-22T05:55:46;10.38;;;6.57;;
21611;SDS011;47005;52.292;13.452;2023-06-22T05:58:12;9.93;;;6.45;;
21611;SDS011;47005;52.292;13.452;2023-06-22T06:00:38;7.85;;;5.75;;
21611;SDS011;47005;52.292;13.452;2023-06-22T06:03:04;6.93;;;5.53;;
21611;SDS011;47005;52.292;13.452;2023-06-22T06:05:32;6.53;;;4.28;;
21611;SDS011;47005;52.292;13.452;2023-06-22T06:07:59;6.47;;;4.80;;
21611;SDS011;47005;52.292;13.452;2023-06-22T06:10:25;7.80;;;5.30;;
21611;SDS011;47005;52.292;13.452;2023-06-22T06:12:51;7.15;;;5.40;;
21611;SDS011;47005;52.292;13.452;2023-06-22T06:15:17;9.05;;;5.38;;
21611;SDS011;47005;52.292;13.452;2023-06-22T06:17:50;7.07;;;5.47;;
21611;SDS011;47005;52.292;13.452;2023-06-22T06:20:18;8.23;;;4.68;;
21611;SDS011;47005;52.292;13.452;2023-06-22T06:22:45;9.38;;;5.75;;
21611;SDS011;47005;52.292;13.452;2023-06-22T06:25:12;9.13;;;5.53;;
21611;SDS011;47005;52.292;13.452;2023-06-22T06:27:41;6.53;;;4.45;;
21611;SDS011;47005;52.292;13.452;2023-06-22T06:30:17;5.85;;;4.22;;
21611;SDS011;47005;52.292;13.452;2023-06-22T06:32:44;5.15;;;4.13;;
21611;SDS011;47005;52.292;13.452;2023-06-22T06:35:11;7.88;;;4.88;;
21611;SDS011;47005;52.292;13.452;2023-06-22T06:37:39;6.50;;;4.90;;
21611;SDS011;47005;52.292;13.452;2023-06-22T06:40:08;5.00;;;3.75;;
21611;SDS011;47005;52.292;13.452;2023-06-22T06:42:38;9.55;;;4.35;;
21611;SDS011;47005;52.292;13.452;2023-06-22T06:45:10;5.63;;;3.67;;
21611;SDS011;47005;52.292;13.452;2023-06-22T06:47:43;5.53;;;3.67;;
21611;SDS011;47005;52.292;13.452;2023-06-22T06:50:10;4.82;;;4.30;;
21611;SDS011;47005;52.292;13.452;2023-06-22T06:52:36;6.30;;;5.00;;
21611;SDS011;47005;52.292;13.452;2023-06-22T06:55:02;7.65;;;4.65;;
21611;SDS011;47005;52.292;13.452;2023-06-22T06:57:33;8.10;;;4.47;;
21611;SDS011;47005;52.292;13.452;2023-06-22T06:59:59;7.97;;;4.78;;
21611;SDS011;47005;52.292;13.452;2023-06-22T07:02:26;6.30;;;4.32;;
21611;SDS011;47005;52.292;13.452;2023-06-22T07:04:53;6.43;;;4.57;;
21611;SDS011;47005;52.292;13.452;2023-06-22T07:07:20;4.47;;;3.50;;
21611;SDS011;47005;52.292;13.452;2023-06-22T07:09:46;6.38;;;4.00;;
21611;SDS011;47005;52.292;13.452;2023-06-22T07:12:12;5.95;;;3.75;;
21611;SDS011;47005;52.292;13.452;2023-06-22T07:14:37;6.22;;;3.38;;
21611;SDS011;47005;52.292;13.452;2023-06-22T07:17:03;5.45;;;3.50;;
21611;SDS011;47005;52.292;13.452;2023-06-22T07:19:29;6.47;;;3.83;;
21611;SDS011;47005;52.292;13.452;2023-06-22T07:21:56;5.55;;;3.33;;
21611;SDS011;47005;52.292;13.452;2023-06-22T07:24:22;10.43;;;4.03;;
21611;SDS011;47005;52.292;13.452;2023-06-22T07:26:48;5.45;;;3.03;;
21611;SDS011;47005;52.292;13.452;2023-06-22T07:29:18;13.43;;;5.40;;
21611;SDS011;47005;52.292;13.452;2023-06-22T07:31:46;6.35;;;4.10;;
21611;SDS011;47005;52.292;13.452;2023-06-22T07:34:12;8.60;;;3.80;;
21611;SDS011;47005;52.292;13.452;2023-06-22T07:36:38;7.47;;;4.30;;
21611;SDS011;47005;52.292;13.452;2023-06-22T07:39:04;4.90;;;4.00;;
21611;SDS011;47005;52.292;13.452;2023-06-22T07:41:30;6.18;;;4.50;;
21611;SDS011;47005;52.292;13.452;2023-06-22T07:43:56;5.25;;;4.10;;
21611;SDS011;47005;52.292;13.452;2023-06-22T07:46:22;9.43;;;5.03;;
21611;SDS011;47005;52.292;13.452;2023-06-22T07:48:48;8.35;;;5.63;;
21611;SDS011;47005;52.292;13.452;2023-06-22T07:51:14;6.85;;;5.78;;
21611;SDS011;47005;52.292;13.452;2023-06-22T07:53:43;6.20;;;4.63;;
21611;SDS011;47005;52.292;13.452;2023-06-22T07:56:12;6.97;;;5.28;;
21611;SDS011;47005;52.292;13.452;2023-06-22T07:58:39;7.25;;;5.00;;
21611;SDS011;47005;52.292;13.452;2023-06-22T08:01:04;7.95;;;4.40;;
21611;SDS011;47005;52.292;13.452;2023-06-22T08:03:31;9.27;;;5.53;;
21611;SDS011;47005;52.292;13.452;2023-06-22T08:05:57;6.72;;;4.55;;
21611;SDS011;47005;52.292;13.452;2023-06-22T08:08:23;7.05;;;5.25;;
21611;SDS011;47005;52.292;13.452;2023-06-22T08:10:49;9.45;;;5.35;;
21611;SDS011;47005;52.292;13.452;2023-06-22T08:13:15;6.13;;;4.93;;
21611;SDS011;47005;52.292;13.452;2023-06-22T08:15:40;5.93;;;4.85;;
21611;SDS011;47005;52.292;13.452;2023-06-22T08:18:06;9.07;;;4.85;;
21611;SDS011;47005;52.292;13.452;2023-06-22T08:20:32;6.38;;;4.47;;
21611;SDS011;47005;52.292;13.452;2023-06-22T08:22:57;8.00;;;5.07;;
21611;SDS011;47005;52.292;13.452;2023-06-22T08:25:30;7.47;;;5.10;;
21611;SDS011;47005;52.292;13.452;2023-06-22T08:27:55;8.23;;;4.93;;
21611;SDS011;47005;52.292;13.452;2023-06-22T08:30:21;8.18;;;5.65;;
21611;SDS011;47005;52.292;13.452;2023-06-22T08:32:46;8.52;;;4.57;;
21611;SDS011;47005;52.292;13.452;2023-06-22T08:35:12;7.95;;;4.82;;
21611;SDS011;47005;52.292;13.452;2023-06-22T08:37:38;6.30;;;4.32;;
21611;SDS011;47005;52.292;13.452;2023-06-22T08:40:05;5.50;;;4.88;;
21611;SDS011;47005;52.292;13.452;2023-06-22T08:42:35;5.75;;;4.70;;
21611;SDS011;47005;52.292;13.452;2023-06-22T08:45:02;7.00;;;5.15;;
21611;SDS011;47005;52.292;13.452;2023-06-22T08:47:29;7.40;;;5.70;;
21611;SDS011;47005;52.292;13.452;2023-06-22T08:49:54;7.40;;;4.82;;
21611;SDS011;47005;52.292;13.452;2023-06-22T08:52:20;5.88;;;4.10;;
21611;SDS011;47005;52.292;13.452;2023-06-22T08:54:49;6.47;;;4.90;;
21611;SDS011;47005;52.292;13.452;2023-06-22T08:57:14;6.43;;;4.80;;
21611;SDS011;47005;52.292;13.452;2023-06-22T08:59:41;5.97;;;4.32;;
21611;SDS011;47005;52.292;13.452;2023-06-22T09:02:07;6.68;;;4.85;;
21611;SDS011;47005;52.292;13.452;2023-06-22T09:04:33;5.40;;;4.35;;
21611;SDS011;47005;52.292;13.452;2023-06-22T09:07:01;9.00;;;3.95;;
21611;SDS011;47005;52.292;13.452;2023-06-22T09:09:27;6.88;;;5.10;;
21611;SDS011;47005;52.292;13.452;2023-06-22T09:11:53;5.72;;;4.22;;
21611;SDS011;47005;52.292;13.452;2023-06-22T09:14:19;5.57;;;4.45;;
21611;SDS011;47005;52.292;13.452;2023-06-22T09:16:44;7.10;;;4.40;;
21611;SDS011;47005;52.292;13.452;2023-06-22T09:19:10;5.25;;;4.60;;
21611;SDS011;47005;52.292;13.452;2023-06-22T09:21:36;5.97;;;4.78;;
21611;SDS011;47005;52.292;13.452;2023-06-22T09:24:02;8.02;;;4.47;;
21611;SDS011;47005;52.292;13.452;2023-06-22T09:26:28;6.60;;;4.70;;
21611;SDS011;47005;52.292;13.452;2023-06-22T09:28:54;8.52;;;4.10;;
21611;SDS011;47005;52.292;13.452;2023-06-22T09:31:19;6.85;;;4.60;;
21611;SDS011;47005;52.292;13.452;2023-06-22T09:33:53;6.22;;;4.57;;
21611;SDS011;47005;52.292;13.452;2023-06-22T09:36:22;5.72;;;4.10;;
21611;SDS011;47005;52.292;13.452;2023-06-22T09:38:48;6.28;;;4.88;;
21611;SDS011;47005;52.292;13.452;2023-06-22T09:41:20;7.63;;;4.30;;
21611;SDS011;47005;52.292;13.452;2023-06-22T09:43:46;5.55;;;4.38;;
21611;SDS011;47005;52.292;13.452;2023-06-22T09:46:13;6.15;;;4.35;;
21611;SDS011;47005;52.292;13.452;2023-06-22T09:48:40;8.40;;;4.78;;
21611;SDS011;47005;52.292;13.452;2023-06-22T09:51:05;6.03;;;4.28;;
21611;SDS011;47005;52.292;13.452;2023-06-22T09:53:31;5.18;;;4.00;;
21611;SDS011;47005;52.292;13.452;2023-06-22T09:55:57;10.85;;;4.22;;
21611;SDS011;47005;52.292;13.452;2023-06-22T09:58:22;5.55;;;4.32;;
21611;SDS011;47005;52.292;13.452;2023-06-22T10:00:48;8.25;;;4.43;;
21611;SDS011;47005;52.292;13.452;2023-06-22T10:03:14;6.43;;;4.50;;
21611;SDS011;47005;52.292;13.452;2023-06-22T10:05:39;12.23;;;4.78;;
21611;SDS011;47005;52.292;13.452;2023-06-22T10:08:05;5.18;;;4.03;;
21611;SDS011;47005;52.292;13.452;2023-06-22T10:10:32;4.97;;;3.63;;
21611;SDS011;47005;52.292;13.452;2023-06-22T10:13:02;6.20;;;4.97;;
21611;SDS011;47005;52.292;13.452;2023-06-22T10:15:34;15.35;;;4.93;;
21611;SDS011;47005;52.292;13.452;2023-06-22T10:17:59;6.63;;;3.92;;
21611;SDS011;47005;52.292;13.452;2023-06-22T10:20:25;5.78;;;4.30;;
21611;SDS011;47005;52.292;13.452;2023-06-22T10:22:51;5.03;;;3.97;;
21611;SDS011;47005;52.292;13.452;2023-06-22T10:25:17;6.28;;;4.60;;
21611;SDS011;47005;52.292;13.452;2023-06-22T10:27:43;7.90;;;4.90;;
21611;SDS011;47005;52.292;13.452;2023-06-22T10:30:09;5.72;;;4.45;;
21611;SDS011;47005;52.292;13.452;2023-06-22T10:32:37;5.90;;;4.25;;
21611;SDS011;47005;52.292;13.452;2023-06-22T10:35:04;7.63;;;4.25;;
21611;SDS011;47005;52.292;13.452;2023-06-22T10:37:30;5.90;;;4.22;;
21611;SDS011;47005;52.292;13.452;2023-06-22T10:39:56;5.40;;;3.58;;
21611;SDS011;47005;52.292;13.452;2023-06-22T10:42:22;6.40;;;4.43;;
21611;SDS011;47005;52.292;13.452;2023-06-22T10:44:47;4.95;;;3.80;;
21611;SDS011;47005;52.292;13.452;2023-06-22T10:47:13;4.82;;;3.83;;
21611;SDS011;47005;52.292;13.452;2023-06-22T10:49:39;7.30;;;4.70;;
21611;SDS011;47005;52.292;13.452;2023-06-22T10:52:08;6.18;;;3.75;;
21611;SDS011;47005;52.292;13.452;2023-06-22T10:54:35;5.65;;;4.47;;
21611;SDS011;47005;52.292;13.452;2023-06-22T10:57:02;7.72;;;5.43;;
21611;SDS011;47005;52.292;13.452;2023-06-22T10:59:28;4.78;;;4.05;;
21611;SDS011;47005;52.292;13.452;2023-06-22T11:01:57;9.75;;;4.22;;
21611;SDS011;47005;52.292;13.452;2023-06-22T11:04:23;5.70;;;4.22;;
21611;SDS011;47005;52.292;13.452;2023-06-22T11:06:49;6.13;;;4.03;;
21611;SDS011;47005;52.292;13.452;2023-06-22T11:09:15;7.50;;;3.80;;
21611;SDS011;47005;52.292;13.452;2023-06-22T11:11:50;6.22;;;4.13;;
21611;SDS011;47005;52.292;13.452;2023-06-22T11:14:18;5.15;;;3.75;;
21611;SDS011;47005;52.292;13.452;2023-06-22T11:16:44;5.38;;;4.00;;
21611;SDS011;47005;52.292;13.452;2023-06-22T11:19:11;5.55;;;3.67;;
21611;SDS011;47005;52.292;13.452;2023-06-22T11:21:37;5.93;;;4.15;;
21611;SDS011;47005;52.292;13.452;2023-06-22T11:24:03;5.45;;;3.70;;
21611;SDS011;47005;52.292;13.452;2023-06-22T11:26:29;6.97;;;4.05;;
21611;SDS011;47005;52.292;13.452;2023-06-22T11:28:54;5.32;;;4.10;;
21611;SDS011;47005;52.292;13.452;2023-06-22T11:31:20;7.40;;;4.28;;
21611;SDS011;47005;52.292;13.452;2023-06-22T11:33:46;6.03;;;4.65;;
21611;SDS011;47005;52.292;13.452;2023-06-22T11:36:13;6.10;;;4.40;;
21611;SDS011;47005;52.292;13.452;2023-06-22T11:38:39;5.53;;;4.15;;
21611;SDS011;47005;52.292;13.452;2023-06-22T11:41:05;8.77;;;4.13;;
21611;SDS011;47005;52.292;13.452;2023-06-22T11:43:32;6.68;;;3.78;;
21611;SDS011;47005;52.292;13.452;2023-06-22T11:45:58;6.07;;;3.55;;
21611;SDS011;47005;52.292;13.452;2023-06-22T11:48:25;8.98;;;4.03;;
21611;SDS011;47005;52.292;13.452;2023-06-22T11:50:50;5.28;;;4.13;;
21611;SDS011;47005;52.292;13.452;2023-06-22T11:53:16;9.57;;;4.53;;
21611;SDS011;47005;52.292;13.452;2023-06-22T11:55:42;6.13;;;3.88;;
21611;SDS011;47005;52.292;13.452;2023-06-22T11:58:09;4.63;;;3.50;;
21611;SDS011;47005;52.292;13.452;2023-06-22T12:00:35;4.88;;;3.85;;
21611;SDS011;47005;52.292;13.452;2023-06-22T12:03:01;5.10;;;3.95;;
21611;SDS011;47005;52.292;13.452;2023-06-22T12:05:27;5.00;;;3.78;;
21611;SDS011;47005;52.292;13.452;2023-06-22T12:07:53;5.55;;;3.80;;
21611;SDS011;47005;52.292;13.452;2023-06-22T12:10:19;6.53;;;4.20;;
21611;SDS011;47005;52.292;13.452;2023-06-22T12:12:45;5.82;;;3.83;;
21611;SDS011;47005;52.292;13.452;2023-06-22T12:15:11;4.90;;;3.65;;
21611;SDS011;47005;52.292;13.452;2023-06-22T12:17:37;6.65;;;4.32;;
21611;SDS011;47005;52.292;13.452;2023-06-22T12:20:03;5.63;;;4.00;;
21611;SDS011;47005;52.292;13.452;2023-06-22T12:22:32;5.30;;;4.00;;
21611;SDS011;47005;52.292;13.452;2023-06-22T12:24:58;6.18;;;4.30;;
21611;SDS011;47005;52.292;13.452;2023-06-22T12:27:24;7.80;;;4.50;;
21611;SDS011;47005;52.292;13.452;2023-06-22T12:29:51;5.55;;;3.95;;
21611;SDS011;47005;52.292;13.452;2023-06-22T12:32:17;7.35;;;3.45;;
21611;SDS011;47005;52.292;13.452;2023-06-22T12:34:43;4.80;;;3.78;;
21611;SDS011;47005;52.292;13.452;2023-06-22T12:37:09;4.57;;;3.38;;
21611;SDS011;47005;52.292;13.452;2023-06-22T12:39:35;4.65;;;3.97;;
21611;SDS011;47005;52.292;13.452;2023-06-22T12:42:01;4.57;;;3.42;;
21611;SDS011;47005;52.292;13.452;2023-06-22T12:44:27;5.05;;;4.30;;
21611;SDS011;47005;52.292;13.452;2023-06-22T12:46:53;7.63;;;4.22;;
21611;SDS011;47005;52.292;13.452;2023-06-22T12:49:18;6.15;;;3.75;;
21611;SDS011;47005;52.292;13.452;2023-06-22T12:51:45;4.75;;;3.83;;
21611;SDS011;47005;52.292;13.452;2023-06-22T12:54:10;6.18;;;4.40;;
21611;SDS011;47005;52.292;13.452;2023-06-22T12:56:37;5.95;;;4.32;;
21611;SDS011;47005;52.292;13.452;2023-06-22T12:59:07;5.47;;;3.80;;
21611;SDS011;47005;52.292;13.452;2023-06-22T13:01:32;7.13;;;4.47;;
21611;SDS011;47005;52.292;13.452;2023-06-22T13:03:58;6.65;;;4.40;;
21611;SDS011;47005;52.292;13.452;2023-06-22T13:06:24;4.85;;;3.83;;
21611;SDS011;47005;52.292;13.452;2023-06-22T13:08:50;6.15;;;4.30;;
21611;SDS011;47005;52.292;13.452;2023-06-22T13:11:16;6.38;;;4.78;;
21611;SDS011;47005;52.292;13.452;2023-06-22T13:13:41;5.28;;;4.25;;
21611;SDS011;47005;52.292;13.452;2023-06-22T13:16:08;7.63;;;4.90;;
21611;SDS011;47005;52.292;13.452;2023-06-22T13:18:34;7.63;;;4.05;;
21611;SDS011;47005;52.292;13.452;2023-06-22T13:21:01;9.88;;;4.32;;
21611;SDS011;47005;52.292;13.452;2023-06-22T13:23:30;5.68;;;4.47;;
21611;SDS011;47005;52.292;13.452;2023-06-22T13:25:57;7.07;;;4.28;;
21611;SDS011;47005;52.292;13.452;2023-06-22T13:28:23;7.00;;;4.57;;
21611;SDS011;47005;52.292;13.452;2023-06-22T13:30:48;9.27;;;4.63;;
21611;SDS011;47005;52.292;13.452;2023-06-22T13:33:14;5.05;;;4.15;;
21611;SDS011;47005;52.292;13.452;2023-06-22T13:35:40;5.88;;;4.18;;
21611;SDS011;47005;52.292;13.452;2023-06-22T13:38:09;5.65;;;3.83;;
21611;SDS011;47005;52.292;13.452;2023-06-22T13:40:35;5.82;;;4.97;;
21611;SDS011;47005;52.292;13.452;2023-06-22T13:43:04;7.60;;;4.70;;
21611;SDS011;47005;52.292;13.452;2023-06-22T13:45:30;5.35;;;4.22;;
21611;SDS011;47005;52.292;13.452;2023-06-22T13:47:56;5.70;;;4.03;;
21611;SDS011;47005;52.292;13.452;2023-06-22T13:50:22;6.90;;;4.43;;
21611;SDS011;47005;52.292;13.452;2023-06-22T13:52:48;6.00;;;4.40;;
21611;SDS011;47005;52.292;13.452;2023-06-22T13:55:13;5.55;;;4.25;;
21611;SDS011;47005;52.292;13.452;2023-06-22T13:57:39;5.60;;;4.43;;
21611;SDS011;47005;52.292;13.452;2023-06-22T14:00:06;5.55;;;4.38;;
21611;SDS011;47005;52.292;13.452;2023-06-22T14:02:33;6.57;;;4.60;;
21611;SDS011;47005;52.292;13.452;2023-06-22T14:04:59;4.60;;;4.10;;
21611;SDS011;47005;52.292;13.452;2023-06-22T14:07:25;5.60;;;4.20;;
21611;SDS011;47005;52.292;13.452;2023-06-22T14:09:51;5.47;;;4.15;;
21611;SDS011;47005;52.292;13.452;2023-06-22T14:12:16;6.40;;;4.97;;
21611;SDS011;47005;52.292;13.452;2023-06-22T14:14:45;6.70;;;4.72;;
21611;SDS011;47005;52.292;13.452;2023-06-22T14:17:11;7.00;;;4.78;;
21611;SDS011;47005;52.292;13.452;2023-06-22T14:19:37;6.22;;;4.63;;
21611;SDS011;47005;52.292;13.452;2023-06-22T14:22:02;8.82;;;4.78;;
21611;SDS011;47005;52.292;13.452;2023-06-22T14:24:28;5.13;;;3.97;;
21611;SDS011;47005;52.292;13.452;2023-06-22T14:26:54;5.90;;;4.18;;